Time;durP1;ratioP1;P1;durP2;ratioP2;P2;SDS_P1;SDS_P2;PMS_P1;PMS_P2;Temp;Humidity;BMP_temperature;BMP_pressure;BME280_temperature;BME280_humidity;BME280_pressure;Samples;Min_cycle;Max_cycle;Signal;HPM_P1;HPM_P2
2023/11/17 00:00:53;;;;;;;10.40;4.50;;;5.50;99.90;;;;;;5031318;28;20032;-54
2023/11/17 00:03:18;;;;;;;13.27;4.80;;;5.40;99.90;;;;;;5031239;28;20103;-55
2023/11/17 00:05:44;;;;;;;11.67;4.53;;;5.40;99.90;;;;;;5031338;28;20034;-56
2023/11/17 00:08:10;;;;;;;12.30;4.83;;;5.40;99.90;;;;;;5031230;28;20398;-55
2023/11/17 00:10:35;;;;;;;12.73;4.97;;;5.40;99.90;;;;;;5029361;28;20041;-56
2023/11/17 00:13:01;;;;;;;15.20;5.40;;;5.40;99.90;;;;;;5031688;28;20103;-53
2023/11/17 00:15:28;;;;;;;12.77;5.57;;;5.30;99.90;;;;;;5031377;28;20478;-56
2023/11/17 00:17:53;;;;;;;13.33;4.77;;;5.30;99.90;;;;;;5030965;28;20069;-55
2023/11/17 00:20:20;;;;;;;12.10;5.07;;;5.30;99.90;;;;;;5030888;28;20064;-51
2023/11/17 00:22:48;;;;;;;10.13;5.10;;;5.20;99.90;;;;;;5030857;28;20053;-51
2023/11/17 00:25:14;;;;;;;10.52;4.72;;;5.20;99.90;;;;;;5031086;28;20485;-56
2023/11/17 00:27:41;;;;;;;11.73;5.33;;;5.20;99.90;;;;;;5030812;28;20505;-55
2023/11/17 00:30:07;;;;;;;12.73;5.70;;;5.20;99.90;;;;;;5030426;28;20061;-55
2023/11/17 00:32:33;;;;;;;13.07;5.13;;;5.20;99.90;;;;;;5029331;28;20085;-55
2023/11/17 00:35:00;;;;;;;14.23;5.53;;;5.20;99.90;;;;;;5012928;28;20041;-55
2023/11/17 00:37:26;;;;;;;16.80;5.43;;;5.20;99.90;;;;;;5029431;28;20030;-53
2023/11/17 00:39:55;;;;;;;12.73;5.63;;;5.20;99.90;;;;;;5028926;28;20029;-53
2023/11/17 00:42:21;;;;;;;15.65;7.07;;;5.10;99.90;;;;;;5029385;28;20040;-53
2023/11/17 00:44:46;;;;;;;12.77;5.20;;;5.10;99.90;;;;;;5031354;28;20037;-54
2023/11/17 00:47:12;;;;;;;10.80;5.00;;;5.10;99.90;;;;;;5029291;28;20117;-54
2023/11/17 00:49:40;;;;;;;12.00;5.23;;;5.20;99.90;;;;;;5030126;28;20470;-54
2023/11/17 00:52:06;;;;;;;13.27;4.87;;;5.20;99.90;;;;;;5029402;28;20049;-55
2023/11/17 00:54:37;;;;;;;11.90;5.03;;;5.20;99.90;;;;;;5030682;28;20163;-55
2023/11/17 00:57:03;;;;;;;11.00;4.63;;;5.20;99.90;;;;;;5030596;28;20026;-54
2023/11/17 00:59:29;;;;;;;12.07;4.67;;;5.10;99.90;;;;;;5030019;28;20022;-55
2023/11/17 01:01:55;;;;;;;12.57;5.00;;;5.10;99.90;;;;;;5030606;28;20459;-55
2023/11/17 01:04:21;;;;;;;14.77;4.63;;;5.10;99.90;;;;;;5029363;28;20033;-53
2023/11/17 01:06:53;;;;;;;12.57;5.10;;;5.00;99.90;;;;;;5030835;28;20030;-52
2023/11/17 01:09:23;;;;;;;11.33;4.90;;;4.90;99.90;;;;;;5029297;28;20044;-54
2023/11/17 01:11:48;;;;;;;12.88;4.72;;;4.80;99.90;;;;;;5030410;28;20040;-54
2023/11/17 01:14:15;;;;;;;7.43;3.90;;;4.70;99.90;;;;;;5029000;28;20120;-55
2023/11/17 01:16:40;;;;;;;10.60;4.63;;;4.70;99.90;;;;;;5029095;28;20026;-55
2023/11/17 01:19:06;;;;;;;11.23;4.67;;;4.60;99.90;;;;;;5028466;28;20471;-51
2023/11/17 01:21:32;;;;;;;13.47;5.50;;;4.60;99.90;;;;;;5030718;28;20029;-51
2023/11/17 01:24:02;;;;;;;10.47;4.23;;;4.60;99.90;;;;;;5032894;28;20504;-54
2023/11/17 01:26:29;;;;;;;11.83;4.60;;;4.50;99.90;;;;;;5034187;28;20026;-55
2023/11/17 01:28:55;;;;;;;11.87;4.37;;;4.50;99.90;;;;;;5032084;28;20399;-51
2023/11/17 01:31:21;;;;;;;8.60;4.17;;;4.40;99.90;;;;;;5032571;28;20060;-55
2023/11/17 01:33:48;;;;;;;11.43;4.93;;;4.30;99.90;;;;;;5032587;28;20061;-53
2023/11/17 01:36:20;;;;;;;9.30;4.47;;;4.40;99.90;;;;;;5033772;28;20056;-51
2023/11/17 01:38:46;;;;;;;12.50;5.10;;;4.30;99.90;;;;;;5033537;28;20556;-53
2023/11/17 01:41:12;;;;;;;17.37;5.77;;;4.40;99.90;;;;;;5032330;28;20121;-54
2023/11/17 01:43:39;;;;;;;10.67;5.30;;;4.30;99.90;;;;;;5033752;28;20109;-55
2023/11/17 01:46:05;;;;;;;11.87;4.33;;;4.20;99.90;;;;;;5032621;28;20040;-52
2023/11/17 01:48:34;;;;;;;12.93;5.20;;;4.10;99.90;;;;;;5031794;28;20034;-54
2023/11/17 01:51:01;;;;;;;10.38;4.50;;;4.00;99.90;;;;;;5033562;28;20037;-52
2023/11/17 01:53:28;;;;;;;12.57;4.77;;;4.00;99.90;;;;;;5033532;28;20029;-55
2023/11/17 01:55:53;;;;;;;10.30;5.10;;;3.90;99.90;;;;;;5032176;28;20037;-55
2023/11/17 01:58:20;;;;;;;11.40;4.80;;;3.90;99.90;;;;;;5031814;28;20386;-53
2023/11/17 02:00:46;;;;;;;12.80;4.50;;;3.90;99.90;;;;;;5032227;28;20034;-54
2023/11/17 02:03:15;;;;;;;11.53;5.00;;;3.90;99.90;;;;;;5031946;28;20036;-53
2023/11/17 02:05:41;;;;;;;14.65;5.10;;;3.80;99.90;;;;;;5032087;28;20036;-53
2023/11/17 02:08:25;;;;;;;12.30;5.70;;;3.80;99.90;;;;;;5033058;28;20444;-54
2023/11/17 02:11:18;;;;;;;11.90;4.90;;;3.70;99.90;;;;;;5031979;28;20038;-54
2023/11/17 02:14:02;;;;;;;10.73;4.57;;;3.70;99.90;;;;;;5033160;28;20030;-54
2023/11/17 02:16:33;;;;;;;13.57;4.57;;;3.60;99.90;;;;;;5031847;28;20497;-54
2023/11/17 02:19:04;;;;;;;13.57;5.70;;;3.70;99.90;;;;;;5031478;28;20428;-55
2023/11/17 02:21:31;;;;;;;12.40;5.50;;;3.60;99.90;;;;;;5033547;28;20071;-55
2023/11/17 02:24:00;;;;;;;10.63;4.70;;;3.60;99.90;;;;;;5033008;28;20540;-50
2023/11/17 02:26:35;;;;;;;12.73;4.97;;;3.60;99.90;;;;;;5033070;28;20036;-54
2023/11/17 02:29:27;;;;;;;10.73;4.73;;;3.50;99.90;;;;;;5031363;28;20033;-54
2023/11/17 02:31:54;;;;;;;11.67;5.13;;;3.40;99.90;;;;;;5031541;28;20083;-54
2023/11/17 02:34:25;;;;;;;12.60;5.57;;;3.30;99.90;;;;;;5031908;28;20037;-52
2023/11/17 02:36:51;;;;;;;13.60;6.10;;;3.30;99.90;;;;;;5031618;28;20029;-55
2023/11/17 02:39:26;;;;;;;9.67;4.27;;;3.20;99.90;;;;;;5031110;28;20072;-55
2023/11/17 02:41:57;;;;;;;11.17;4.40;;;3.20;99.90;;;;;;5031526;28;20037;-55
2023/11/17 02:44:28;;;;;;;11.47;4.47;;;3.30;99.90;;;;;;5032986;28;20482;-55
2023/11/17 02:47:03;;;;;;;14.30;4.93;;;3.30;99.90;;;;;;5032736;28;20102;-51
2023/11/17 02:49:42;;;;;;;13.07;5.17;;;3.40;99.90;;;;;;5032233;28;20033;-52
2023/11/17 02:52:11;;;;;;;11.27;4.23;;;3.40;99.90;;;;;;5032724;28;20293;-55
2023/11/17 02:54:40;;;;;;;14.15;5.20;;;3.30;99.90;;;;;;5031482;28;20029;-55
2023/11/17 02:57:07;;;;;;;16.92;5.45;;;3.30;99.90;;;;;;5031469;28;20513;-55
2023/11/17 02:59:35;;;;;;;12.83;4.87;;;3.20;99.90;;;;;;5030968;28;20037;-54
2023/11/17 03:02:05;;;;;;;11.80;4.77;;;3.10;99.90;;;;;;5031233;28;20052;-51
2023/11/17 03:04:31;;;;;;;11.50;4.93;;;3.20;99.90;;;;;;5031241;28;20037;-55
2023/11/17 03:07:01;;;;;;;10.13;4.43;;;3.20;99.90;;;;;;5031328;28;20305;-54
2023/11/17 03:09:29;;;;;;;10.73;4.80;;;3.10;99.90;;;;;;5031655;28;20525;-53
2023/11/17 03:11:59;;;;;;;16.90;5.60;;;3.10;99.90;;;;;;5032452;28;20049;-55
2023/11/17 03:14:26;;;;;;;13.87;5.20;;;3.10;99.90;;;;;;5032288;28;20119;-55
2023/11/17 03:16:53;;;;;;;11.47;5.63;;;3.20;99.90;;;;;;5032092;28;20021;-54
2023/11/17 03:19:18;;;;;;;17.90;5.53;;;3.20;99.90;;;;;;5030177;28;20029;-56
2023/11/17 03:21:45;;;;;;;12.53;5.57;;;3.20;99.90;;;;;;5030621;28;20021;-55
2023/11/17 03:24:17;;;;;;;14.03;5.37;;;3.20;99.90;;;;;;5030519;28;20033;-53
2023/11/17 03:26:50;;;;;;;16.10;5.60;;;3.10;99.90;;;;;;5031989;28;20466;-54
2023/11/17 03:29:15;;;;;;;13.60;4.90;;;3.00;99.90;;;;;;5031404;28;20025;-55
2023/11/17 03:31:48;;;;;;;11.03;5.03;;;3.00;99.90;;;;;;5030287;28;20390;-55
2023/11/17 03:34:23;;;;;;;13.67;5.33;;;3.00;99.90;;;;;;5030342;28;20029;-56
2023/11/17 03:36:56;;;;;;;17.13;6.27;;;3.00;99.90;;;;;;5030247;28;20025;-55
2023/11/17 03:39:23;;;;;;;11.67;5.47;;;3.00;99.90;;;;;;5030162;28;20025;-55
2023/11/17 03:41:48;;;;;;;13.47;6.03;;;3.00;99.90;;;;;;5030367;28;20029;-52
2023/11/17 03:44:14;;;;;;;13.37;6.27;;;3.00;99.90;;;;;;5030142;28;20554;-54
2023/11/17 03:46:46;;;;;;;15.23;6.27;;;3.00;99.90;;;;;;5031436;28;20120;-54
2023/11/17 03:49:12;;;;;;;14.00;6.13;;;2.90;99.90;;;;;;5031006;28;20083;-54
2023/11/17 03:51:38;;;;;;;13.47;5.03;;;3.00;99.90;;;;;;5030696;28;20541;-54
2023/11/17 03:54:09;;;;;;;18.33;5.40;;;2.90;99.90;;;;;;5030224;28;20025;-52
2023/11/17 03:56:34;;;;;;;14.20;5.73;;;3.00;99.90;;;;;;5030056;28;20036;-54
2023/11/17 03:59:03;;;;;;;14.73;5.83;;;3.00;99.90;;;;;;5029550;28;20033;-55
2023/11/17 04:01:29;;;;;;;16.17;5.88;;;3.00;99.90;;;;;;5031272;28;20039;-55
2023/11/17 04:03:55;;;;;;;15.23;6.13;;;2.90;99.90;;;;;;5029754;28;20038;-55
2023/11/17 04:06:20;;;;;;;12.93;5.23;;;2.90;99.90;;;;;;5031140;28;20021;-55
2023/11/17 04:08:47;;;;;;;15.40;6.37;;;2.90;99.90;;;;;;5030485;28;20041;-55
2023/11/17 04:11:14;;;;;;;15.60;6.17;;;3.00;99.90;;;;;;5029591;28;20038;-54
2023/11/17 04:13:42;;;;;;;16.40;6.63;;;3.10;99.90;;;;;;5031080;28;20124;-54
2023/11/17 04:16:10;;;;;;;19.60;7.07;;;3.00;99.90;;;;;;5029672;28;20113;-53
2023/11/17 04:18:39;;;;;;;26.93;6.87;;;3.00;99.90;;;;;;5029304;28;20033;-55
2023/11/17 04:21:10;;;;;;;30.27;7.63;;;3.00;99.90;;;;;;5030891;28;20026;-52
2023/11/17 04:23:36;;;;;;;21.50;7.67;;;3.10;99.90;;;;;;5029524;28;20485;-55
2023/11/17 04:26:03;;;;;;;30.20;7.90;;;3.10;99.90;;;;;;5030838;28;20037;-55
2023/11/17 04:28:32;;;;;;;29.47;9.00;;;3.20;99.90;;;;;;5030370;28;20044;-55
2023/11/17 04:30:58;;;;;;;21.97;7.47;;;3.20;99.90;;;;;;5030797;28;20037;-55
2023/11/17 04:33:24;;;;;;;26.67;7.80;;;3.30;99.90;;;;;;5030736;28;20564;-54
2023/11/17 04:35:50;;;;;;;24.83;8.17;;;3.30;99.90;;;;;;5030746;28;20533;-50
2023/11/17 04:38:15;;;;;;;29.63;9.10;;;3.40;99.90;;;;;;5030300;28;20045;-54
2023/11/17 04:40:41;;;;;;;27.77;8.40;;;3.50;99.90;;;;;;5030697;28;20047;-54
2023/11/17 04:43:06;;;;;;;29.97;8.43;;;3.50;99.90;;;;;;5030683;28;20040;-54
2023/11/17 04:45:36;;;;;;;24.40;7.73;;;3.60;99.90;;;;;;5030745;28;20084;-54
2023/11/17 04:48:04;;;;;;;24.95;9.05;;;3.60;99.90;;;;;;5030509;28;20037;-52
2023/11/17 04:50:31;;;;;;;28.08;10.02;;;3.60;99.90;;;;;;5030714;28;20041;-54
2023/11/17 04:52:57;;;;;;;30.20;9.83;;;3.70;99.90;;;;;;5030664;28;20043;-52
2023/11/17 04:55:23;;;;;;;23.43;7.87;;;3.80;99.90;;;;;;5030869;28;20033;-52
2023/11/17 04:57:49;;;;;;;27.23;8.93;;;3.80;99.90;;;;;;5034217;28;20029;-55
2023/11/17 05:00:16;;;;;;;28.47;9.93;;;3.80;99.90;;;;;;5034599;28;20032;-55
2023/11/17 05:02:42;;;;;;;26.47;9.27;;;3.80;99.90;;;;;;5034586;28;20073;-54
2023/11/17 05:05:10;;;;;;;28.50;9.83;;;3.90;99.90;;;;;;5034857;28;20037;-55
2023/11/17 05:07:43;;;;;;;26.20;9.20;;;3.90;99.90;;;;;;5034427;28;20403;-55
2023/11/17 05:10:11;;;;;;;27.07;9.40;;;4.00;99.90;;;;;;5034414;28;20052;-55
2023/11/17 05:12:37;;;;;;;26.00;9.60;;;4.10;99.90;;;;;;5033356;28;20099;-54
2023/11/17 05:15:04;;;;;;;23.10;9.07;;;4.10;99.90;;;;;;5034604;28;20510;-56
2023/11/17 05:17:34;;;;;;;23.13;9.03;;;4.10;99.90;;;;;;5034446;28;20068;-55
2023/11/17 05:20:00;;;;;;;26.20;9.33;;;4.10;99.90;;;;;;5033982;28;20044;-53
2023/11/17 05:22:26;;;;;;;24.47;9.37;;;4.10;99.90;;;;;;5034727;28;20029;-56
2023/11/17 05:24:53;;;;;;;20.87;8.43;;;4.10;99.90;;;;;;5034302;28;20394;-52
2023/11/17 05:27:19;;;;;;;25.17;10.20;;;4.20;99.90;;;;;;5034368;28;20034;-54
2023/11/17 05:29:44;;;;;;;30.43;9.60;;;4.20;99.90;;;;;;5032833;28;20259;-56
2023/11/17 05:32:10;;;;;;;22.70;9.23;;;4.20;99.90;;;;;;5034570;28;20060;-55
2023/11/17 05:34:36;;;;;;;20.43;8.30;;;4.20;99.90;;;;;;5034038;28;20029;-55
2023/11/17 05:37:02;;;;;;;23.40;10.10;;;4.20;99.90;;;;;;5034304;28;20080;-55
2023/11/17 05:39:27;;;;;;;25.20;9.03;;;4.30;99.90;;;;;;5033601;28;20033;-56
2023/11/17 05:41:53;;;;;;;20.00;8.47;;;4.30;99.90;;;;;;5034105;28;20044;-51
2023/11/17 05:44:19;;;;;;;22.07;8.70;;;4.30;99.90;;;;;;5033839;28;20026;-55
2023/11/17 05:46:45;;;;;;;27.03;9.00;;;4.30;99.90;;;;;;5033790;28;20588;-54
2023/11/17 05:49:11;;;;;;;23.83;8.97;;;4.40;99.90;;;;;;5033196;28;20033;-55
2023/11/17 05:51:37;;;;;;;21.60;9.47;;;4.30;99.90;;;;;;5032452;28;20499;-56
2023/11/17 05:54:02;;;;;;;24.13;8.57;;;4.40;99.90;;;;;;5033655;28;20069;-52
2023/11/17 05:56:28;;;;;;;20.53;8.37;;;4.30;99.90;;;;;;5033563;28;20029;-56
2023/11/17 05:58:54;;;;;;;23.57;9.53;;;4.40;99.90;;;;;;5032016;28;20029;-56
2023/11/17 06:01:20;;;;;;;23.13;7.97;;;4.30;99.90;;;;;;5033560;28;20048;-52
2023/11/17 06:03:45;;;;;;;20.67;8.07;;;4.40;99.90;;;;;;5033340;28;20095;-54
2023/11/17 06:06:11;;;;;;;21.17;7.43;;;4.40;99.90;;;;;;5033415;28;20525;-55
2023/11/17 06:08:37;;;;;;;21.30;8.87;;;4.40;99.90;;;;;;5031619;28;20037;-54
2023/11/17 06:11:04;;;;;;;21.80;8.33;;;4.30;99.90;;;;;;5033236;28;20120;-56
2023/11/17 06:13:29;;;;;;;18.37;8.30;;;4.30;99.90;;;;;;5033252;28;20040;-54
2023/11/17 06:15:55;;;;;;;28.20;8.80;;;4.40;99.90;;;;;;5033045;28;20045;-54
2023/11/17 06:18:21;;;;;;;26.80;9.20;;;4.40;99.90;;;;;;5032915;28;20108;-51
2023/11/17 06:20:49;;;;;;;19.93;8.67;;;4.40;99.90;;;;;;5033267;28;20064;-55
2023/11/17 06:23:15;;;;;;;19.07;8.30;;;4.40;99.90;;;;;;5033028;28;20043;-53
2023/11/17 06:25:41;;;;;;;23.53;9.67;;;4.40;99.90;;;;;;5033036;28;20486;-53
2023/11/17 06:28:07;;;;;;;18.93;8.67;;;4.40;99.90;;;;;;5031392;28;20561;-53
2023/11/17 06:30:33;;;;;;;23.97;8.80;;;4.30;99.90;;;;;;5032628;28;20044;-50
2023/11/17 06:32:59;;;;;;;22.53;9.40;;;4.50;99.90;;;;;;5033370;28;20112;-54
2023/11/17 06:35:24;;;;;;;24.83;9.23;;;4.50;99.90;;;;;;5032682;28;20034;-53
2023/11/17 06:37:50;;;;;;;22.20;9.03;;;4.50;99.90;;;;;;5032481;28;20552;-56
2023/11/17 06:40:17;;;;;;;22.57;9.50;;;4.50;99.90;;;;;;5032538;28;20113;-56
2023/11/17 06:42:43;;;;;;;22.07;9.10;;;4.40;99.90;;;;;;5032696;28;20131;-55
2023/11/17 06:45:12;;;;;;;24.83;9.47;;;4.50;99.90;;;;;;5032661;28;20033;-53
2023/11/17 06:47:40;;;;;;;23.77;10.30;;;4.50;99.90;;;;;;5032619;28;20037;-53
2023/11/17 06:50:06;;;;;;;27.40;9.83;;;4.50;99.90;;;;;;5032272;28;20037;-54
2023/11/17 06:52:31;;;;;;;27.37;10.47;;;4.50;99.90;;;;;;5032493;28;21004;-52
2023/11/17 06:54:57;;;;;;;26.13;11.57;;;4.50;99.90;;;;;;5032512;28;20116;-54
2023/11/17 06:57:23;;;;;;;26.77;10.97;;;4.60;99.90;;;;;;5031699;28;20096;-54
2023/11/17 06:59:48;;;;;;;28.63;10.50;;;4.60;99.90;;;;;;5031865;28;20032;-53
2023/11/17 07:02:14;;;;;;;37.50;14.43;;;4.60;99.90;;;;;;5032360;28;20128;-53
2023/11/17 07:04:39;;;;;;;29.83;11.33;;;4.70;99.90;;;;;;5032439;28;20033;-51
2023/11/17 07:07:05;;;;;;;27.47;11.13;;;4.70;99.90;;;;;;5032318;28;20033;-53
2023/11/17 07:09:32;;;;;;;28.60;10.53;;;4.70;99.90;;;;;;5031606;28;20061;-53
2023/11/17 07:12:02;;;;;;;30.27;11.10;;;4.70;99.90;;;;;;5032122;28;20040;-54
2023/11/17 07:14:30;;;;;;;30.30;11.43;;;4.70;99.90;;;;;;5030745;28;20029;-52
2023/11/17 07:16:56;;;;;;;26.17;10.97;;;4.70;99.90;;;;;;5032234;28;20489;-53
2023/11/17 07:19:21;;;;;;;31.03;11.90;;;4.80;99.90;;;;;;5031130;28;20040;-53
2023/11/17 07:21:49;;;;;;;29.43;11.80;;;4.90;99.90;;;;;;5031898;28;20021;-54
2023/11/17 07:24:15;;;;;;;27.33;11.03;;;4.90;99.90;;;;;;5032244;28;20029;-51
2023/11/17 07:26:43;;;;;;;23.80;10.20;;;5.00;99.90;;;;;;5032007;28;20033;-55
2023/11/17 07:29:09;;;;;;;32.57;12.27;;;5.00;99.90;;;;;;5031218;28;20120;-54
2023/11/17 07:31:37;;;;;;;31.10;11.10;;;5.00;99.90;;;;;;5031708;28;20120;-53
2023/11/17 07:34:15;;;;;;;29.03;10.93;;;5.00;99.90;;;;;;5031707;28;20140;-54
2023/11/17 07:36:42;;;;;;;29.77;11.90;;;5.00;99.90;;;;;;5031824;28;20033;-54
2023/11/17 07:39:12;;;;;;;28.03;10.17;;;5.00;99.90;;;;;;5031168;28;20033;-55
2023/11/17 07:41:39;;;;;;;26.80;10.53;;;5.00;99.90;;;;;;5031480;28;20033;-55
2023/11/17 07:44:06;;;;;;;31.07;11.23;;;5.00;99.90;;;;;;5031605;28;20033;-56
2023/11/17 07:46:32;;;;;;;25.97;9.90;;;5.00;99.90;;;;;;5031546;28;20034;-55
2023/11/17 07:48:58;;;;;;;31.43;11.53;;;5.00;99.90;;;;;;5031042;28;20026;-55
2023/11/17 07:51:23;;;;;;;29.03;10.13;;;5.00;99.90;;;;;;5031499;28;20057;-54
2023/11/17 07:53:49;;;;;;;27.63;10.37;;;5.00;99.90;;;;;;5031311;28;20382;-55
2023/11/17 07:56:15;;;;;;;26.23;9.83;;;5.00;99.90;;;;;;5031819;28;20025;-55
2023/11/17 07:58:43;;;;;;;24.07;10.03;;;5.10;99.90;;;;;;5031127;28;20413;-52
2023/11/17 08:01:09;;;;;;;28.70;10.02;;;5.10;99.90;;;;;;5031692;28;20029;-55
2023/11/17 08:03:39;;;;;;;35.00;11.40;;;5.10;99.90;;;;;;5031726;28;20156;-55
2023/11/17 08:06:05;;;;;;;;;;;5.10;99.90;;;;;;5032436;28;20033;-52
2023/11/17 08:08:32;;;;;;;23.50;9.17;;;5.10;99.90;;;;;;5030969;28;19913;-55
2023/11/17 08:10:59;;;;;;;25.73;10.57;;;5.10;99.90;;;;;;5031312;28;20488;-55
2023/11/17 08:13:25;;;;;;;24.17;10.33;;;5.10;99.90;;;;;;5031012;28;20046;-54
2023/11/17 08:15:51;;;;;;;27.20;9.77;;;5.20;99.90;;;;;;5031235;28;20073;-51
2023/11/17 08:18:17;;;;;;;33.20;11.53;;;5.20;99.90;;;;;;5030952;28;20021;-51
2023/11/17 08:20:44;;;;;;;32.03;10.70;;;5.10;99.90;;;;;;5030902;28;20112;-53
2023/11/17 08:23:10;;;;;;;31.80;10.73;;;5.10;99.90;;;;;;5031122;28;20083;-52
2023/11/17 08:25:36;;;;;;;32.60;12.00;;;5.20;99.90;;;;;;5031046;28;20041;-53
2023/11/17 08:28:06;;;;;;;34.03;11.73;;;5.20;99.90;;;;;;5029317;28;20033;-53
2023/11/17 08:30:33;;;;;;;36.83;12.57;;;5.20;99.90;;;;;;5030281;28;20033;-53
2023/11/17 08:32:59;;;;;;;33.57;12.37;;;5.30;99.90;;;;;;5030741;28;20065;-54
2023/11/17 08:35:25;;;;;;;30.27;11.03;;;5.30;99.90;;;;;;5030710;28;20033;-52
2023/11/17 08:37:55;;;;;;;29.50;12.13;;;5.30;99.90;;;;;;5030352;28;20029;-55
2023/11/17 08:40:22;;;;;;;29.33;11.87;;;5.30;99.90;;;;;;5030357;28;20087;-54
2023/11/17 08:42:48;;;;;;;33.00;12.27;;;5.30;99.90;;;;;;5030967;28;20378;-54
2023/11/17 08:45:15;;;;;;;35.33;13.10;;;5.40;99.90;;;;;;5029361;28;20393;-54
2023/11/17 08:47:43;;;;;;;30.63;12.47;;;5.50;99.90;;;;;;5029537;28;20030;-52
2023/11/17 08:50:11;;;;;;;36.30;13.95;;;5.50;99.90;;;;;;5030277;28;20030;-52
2023/11/17 08:52:39;;;;;;;31.70;12.90;;;5.50;99.90;;;;;;5030412;28;20033;-52
2023/11/17 08:55:04;;;;;;;35.23;12.20;;;5.60;99.90;;;;;;5030788;28;20459;-56
2023/11/17 08:57:35;;;;;;;39.10;13.03;;;5.50;99.90;;;;;;5030586;28;20029;-55
2023/11/17 09:00:11;;;;;;;34.53;12.53;;;5.50;99.90;;;;;;5030332;28;20026;-52
2023/11/17 09:02:49;;;;;;;31.40;12.50;;;5.50;99.90;;;;;;5031001;28;20041;-56
2023/11/17 09:05:15;;;;;;;32.53;12.53;;;5.60;99.90;;;;;;5030553;28;20386;-56
2023/11/17 09:07:42;;;;;;;36.50;13.07;;;5.70;99.90;;;;;;5030571;28;20263;-56
2023/11/17 09:10:15;;;;;;;36.23;13.20;;;5.80;99.90;;;;;;5029914;28;20113;-52
2023/11/17 09:12:42;;;;;;;35.13;12.90;;;5.80;99.90;;;;;;5030408;28;20063;-56
2023/11/17 09:15:13;;;;;;;36.57;12.97;;;5.80;99.90;;;;;;5029189;28;20526;-54
2023/11/17 09:17:44;;;;;;;36.17;13.53;;;5.90;99.90;;;;;;5030364;28;20041;-51
2023/11/17 09:20:13;;;;;;;36.53;12.57;;;6.00;99.90;;;;;;5030170;28;20049;-53
2023/11/17 09:22:40;;;;;;;41.30;12.98;;;5.90;99.90;;;;;;5030529;28;20037;-54
2023/11/17 09:25:13;;;;;;;30.07;11.53;;;6.10;99.90;;;;;;5030768;28;20437;-53
2023/11/17 09:27:40;;;;;;;35.97;12.03;;;6.20;99.90;;;;;;5030242;28;20129;-55
2023/11/17 09:30:08;;;;;;;32.10;12.67;;;6.20;99.90;;;;;;5029785;28;20060;-53
2023/11/17 09:32:34;;;;;;;32.77;12.37;;;6.20;99.90;;;;;;5030114;28;20072;-52
2023/11/17 09:34:59;;;;;;;35.53;13.10;;;6.20;99.90;;;;;;5030077;28;20061;-53
2023/11/17 09:37:25;;;;;;;32.57;11.10;;;6.30;99.90;;;;;;5030202;28;20029;-55
2023/11/17 09:39:50;;;;;;;38.27;14.37;;;6.20;99.90;;;;;;5029729;28;20037;-55
2023/11/17 09:42:17;;;;;;;30.53;12.10;;;6.20;99.90;;;;;;5031105;28;20120;-53
2023/11/17 09:44:46;;;;;;;30.77;11.17;;;6.20;99.90;;;;;;5033724;28;20029;-54
2023/11/17 09:47:18;;;;;;;;;;;6.30;99.90;;;;;;5034535;28;20109;-52
2023/11/17 09:49:45;;;;;;;32.10;11.40;;;6.30;99.90;;;;;;5033546;28;19972;-53
2023/11/17 09:52:14;;;;;;;35.57;12.50;;;6.30;99.90;;;;;;5033586;28;20041;-55
2023/11/17 09:54:41;;;;;;;34.63;11.80;;;6.40;99.90;;;;;;5033630;28;20387;-54
2023/11/17 09:57:09;;;;;;;30.20;12.13;;;6.30;99.90;;;;;;5033679;28;20323;-54
2023/11/17 09:59:36;;;;;;;28.40;11.63;;;6.40;99.90;;;;;;5033174;28;20886;-53
2023/11/17 10:02:03;;;;;;;34.50;12.00;;;6.40;99.90;;;;;;5033464;28;20108;-54
2023/11/17 10:04:29;;;;;;;27.97;11.37;;;6.40;99.90;;;;;;5034061;28;20026;-54
2023/11/17 10:06:56;;;;;;;30.80;12.57;;;6.40;99.90;;;;;;5032593;28;20080;-53
2023/11/17 10:09:23;;;;;;;31.00;12.37;;;6.30;99.90;;;;;;5032843;28;20596;-53
2023/11/17 10:11:51;;;;;;;33.47;11.40;;;6.30;99.90;;;;;;5033231;28;20060;-55
2023/11/17 10:14:22;;;;;;;37.10;13.27;;;6.30;99.90;;;;;;5033406;28;20425;-54
2023/11/17 10:16:50;;;;;;;35.83;13.30;;;6.40;99.90;;;;;;5033255;28;20030;-53
2023/11/17 10:19:18;;;;;;;31.87;12.43;;;6.40;99.90;;;;;;5032813;28;20083;-56
2023/11/17 10:21:46;;;;;;;33.77;12.70;;;6.40;99.90;;;;;;5033306;28;20095;-53
2023/11/17 10:24:11;;;;;;;42.60;15.87;;;6.40;99.90;;;;;;5033125;28;20166;-53
2023/11/17 10:26:39;;;;;;;36.63;12.50;;;6.40;99.90;;;;;;5033237;28;20615;-53
2023/11/17 10:29:06;;;;;;;32.23;14.30;;;6.40;99.90;;;;;;5032650;28;20112;-51
2023/11/17 10:31:36;;;;;;;31.63;12.80;;;6.30;99.90;;;;;;5033191;28;20040;-55
2023/11/17 10:34:03;;;;;;;36.03;12.20;;;6.30;99.90;;;;;;5033056;28;20073;-52
2023/11/17 10:36:28;;;;;;;38.50;13.50;;;6.40;99.90;;;;;;5033672;28;20095;-52
2023/11/17 10:39:07;;;;;;;29.97;11.93;;;6.50;99.90;;;;;;5032502;28;20033;-53
2023/11/17 10:41:33;;;;;;;33.17;13.27;;;6.50;99.90;;;;;;5033149;28;20030;-50
2023/11/17 10:44:03;;;;;;;33.53;12.00;;;6.60;99.90;;;;;;5032886;28;20048;-50
2023/11/17 10:46:44;;;;;;;28.77;11.33;;;6.60;99.90;;;;;;5032816;28;20513;-54
2023/11/17 10:49:15;;;;;;;36.27;13.67;;;6.60;99.90;;;;;;5032159;28;20391;-55
2023/11/17 10:51:51;;;;;;;29.47;11.83;;;6.60;99.90;;;;;;5032851;28;20048;-57
2023/11/17 10:54:19;;;;;;;33.47;13.40;;;6.70;99.90;;;;;;5032028;28;20022;-51
2023/11/17 10:56:47;;;;;;;32.67;12.33;;;6.80;99.90;;;;;;5033024;28;20037;-53
2023/11/17 10:59:16;;;;;;;31.93;12.00;;;6.90;99.90;;;;;;5031962;28;20029;-51
2023/11/17 11:01:42;;;;;;;29.40;12.23;;;7.10;99.90;;;;;;5032270;28;20427;-55
2023/11/17 11:04:14;;;;;;;27.00;11.33;;;7.20;99.90;;;;;;5032364;28;20170;-53
2023/11/17 11:06:42;;;;;;;33.93;12.23;;;7.40;99.90;;;;;;5031163;28;20041;-55
2023/11/17 11:09:09;;;;;;;35.20;12.67;;;7.60;99.90;;;;;;5030601;28;20074;-53
2023/11/17 11:11:35;;;;;;;29.30;12.43;;;7.90;99.90;;;;;;5032429;28;20029;-55
2023/11/17 11:14:03;;;;;;;41.40;15.27;;;8.30;99.90;;;;;;5032100;28;20394;-54
2023/11/17 11:16:32;;;;;;;27.30;11.70;;;8.50;99.90;;;;;;5032149;28;20041;-55
2023/11/17 11:18:59;;;;;;;30.23;12.07;;;8.60;99.90;;;;;;5031692;28;20426;-55
2023/11/17 11:21:29;;;;;;;28.97;11.63;;;8.70;99.90;;;;;;5030853;28;20038;-54
2023/11/17 11:23:59;;;;;;;28.33;12.03;;;8.80;99.90;;;;;;5031934;28;20049;-54
2023/11/17 11:26:26;;;;;;;33.47;12.03;;;8.90;99.90;;;;;;5031991;28;20025;-54
2023/11/17 11:28:56;;;;;;;28.37;11.43;;;9.00;99.90;;;;;;5031435;28;20064;-55
2023/11/17 11:31:22;;;;;;;29.67;11.27;;;8.90;99.90;;;;;;5031888;28;20544;-54
2023/11/17 11:33:49;;;;;;;25.47;11.50;;;8.90;99.90;;;;;;5031701;28;20037;-56
2023/11/17 11:36:15;;;;;;;25.80;10.60;;;8.90;99.90;;;;;;5031860;28;20068;-54
2023/11/17 11:38:49;;;;;;;31.97;12.43;;;8.90;99.90;;;;;;5031072;28;20087;-55
2023/11/17 11:41:22;;;;;;;31.03;10.43;;;8.90;99.90;;;;;;5031608;28;20045;-55
2023/11/17 11:43:52;;;;;;;26.13;10.47;;;8.70;99.90;;;;;;5031811;28;20032;-52
2023/11/17 11:46:19;;;;;;;25.77;10.77;;;8.60;99.90;;;;;;5031696;28;20108;-50
2023/11/17 11:48:56;;;;;;;29.40;11.47;;;8.50;99.90;;;;;;5030978;28;20108;-53
2023/11/17 11:51:25;;;;;;;27.60;12.17;;;8.30;99.90;;;;;;5031707;28;20321;-54
2023/11/17 11:53:58;;;;;;;32.70;13.52;;;8.10;99.90;;;;;;5031340;28;20026;-54
2023/11/17 11:56:28;;;;;;;32.93;12.03;;;8.00;99.90;;;;;;5031908;28;20033;-54
2023/11/17 11:58:55;;;;;;;27.03;12.13;;;8.00;99.90;;;;;;5030812;28;20037;-55
2023/11/17 12:01:23;;;;;;;31.53;12.83;;;7.90;99.90;;;;;;5031261;28;20034;-50
2023/11/17 12:03:57;;;;;;;26.53;12.00;;;7.90;99.90;;;;;;5031233;28;20438;-54
2023/11/17 12:06:26;;;;;;;32.23;12.80;;;7.80;99.90;;;;;;5030414;28;20069;-52
2023/11/17 12:09:07;;;;;;;33.25;11.85;;;7.80;99.90;;;;;;5030671;28;20076;-54
2023/11/17 12:11:42;;;;;;;32.27;12.17;;;7.80;99.90;;;;;;5031298;28;20041;-57
2023/11/17 12:14:08;;;;;;;27.20;11.10;;;7.90;99.90;;;;;;5030908;28;20436;-53
2023/11/17 12:16:36;;;;;;;29.20;11.03;;;7.80;99.90;;;;;;5030971;28;20025;-55
2023/11/17 12:19:03;;;;;;;33.90;13.67;;;7.80;99.90;;;;;;5030633;28;20025;-51
2023/11/17 12:21:37;;;;;;;31.33;12.57;;;7.70;99.90;;;;;;5031116;28;20462;-51
2023/11/17 12:24:23;;;;;;;33.83;13.67;;;7.70;99.90;;;;;;5030843;28;20045;-52
2023/11/17 12:26:57;;;;;;;25.63;10.67;;;7.70;99.90;;;;;;5031025;28;20045;-56
2023/11/17 12:29:31;;;;;;;28.73;11.50;;;7.80;99.90;;;;;;5030364;28;20029;-55
2023/11/17 12:32:03;;;;;;;34.80;12.53;;;7.80;99.90;;;;;;5030931;28;20470;-56
2023/11/17 12:34:30;;;;;;;29.40;12.17;;;7.90;99.90;;;;;;5030620;28;20041;-53
2023/11/17 12:37:00;;;;;;;30.40;11.60;;;8.00;99.90;;;;;;5030809;28;20099;-53
2023/11/17 12:39:39;;;;;;;31.80;13.47;;;7.90;99.90;;;;;;5030301;28;20375;-54
2023/11/17 12:42:14;;;;;;;30.42;12.55;;;8.00;99.90;;;;;;5031344;28;20034;-54
2023/11/17 12:44:40;;;;;;;30.30;12.60;;;8.00;99.90;;;;;;5031295;28;20043;-55
2023/11/17 12:47:08;;;;;;;30.10;11.80;;;8.00;99.90;;;;;;5030934;28;20120;-53